QFA645 YSSY-YPPH
Flight info
| Callsign | QFA645 |
|---|---|
| Flight time | N/A |
| Altitude | 38000 |
| Route | KADOM1/34L KADOM H44 AD Q33 LONLY/N0477F400 Q33 ESP Q158 PH |
| Aircraft | B789/H-SDE1E2E3FGHIJ2J3J4J5M1RWXY/LB1D1 |
Departure
| Time | 2026-04-26 07:27 |
|---|---|
| Airport | Sydney Kingsford Smith International Airport (YSSY) |
Arrival
| Time | N/A |
|---|---|
| Airport | Perth International Airport (YPPH) |
| Time | Latitude | Longitude | Altitude | Speed | Heading |
|---|---|---|---|---|---|
| 2026-04-26 06:41 | -33.93098 | 151.17626 | 36 ft | 0 kts | 166° |
| 2026-04-26 07:06 | -33.93089 | 151.17624 | 35 ft | 2 kts | 166° |
| 2026-04-26 07:06 | -33.93073 | 151.17619 | 34 ft | 2 kts | 166° |
| 2026-04-26 07:06 | -33.93058 | 151.17615 | 35 ft | 2 kts | 166° |
| 2026-04-26 07:07 | -33.93042 | 151.17610 | 35 ft | 2 kts | 171° |
| 2026-04-26 07:07 | -33.93026 | 151.17611 | 34 ft | 2 kts | 189° |
| 2026-04-26 07:07 | -33.93011 | 151.17618 | 33 ft | 2 kts | 225° |
| 2026-04-26 07:07 | -33.93007 | 151.17628 | 34 ft | 0 kts | 286° |
| 2026-04-26 07:16 | -33.93007 | 151.17627 | 36 ft | 1 kts | 286° |
| 2026-04-26 07:17 | -33.93002 | 151.17607 | 36 ft | 4 kts | 284° |
| 2026-04-26 07:17 | -33.93001 | 151.17572 | 36 ft | 4 kts | 253° |
| 2026-04-26 07:17 | -33.93017 | 151.17552 | 36 ft | 4 kts | 213° |
| 2026-04-26 07:17 | -33.93062 | 151.17527 | 35 ft | 10 kts | 197° |
| 2026-04-26 07:18 | -33.93146 | 151.17531 | 35 ft | 14 kts | 169° |
| 2026-04-26 07:18 | -33.93257 | 151.17559 | 35 ft | 18 kts | 167° |
| 2026-04-26 07:18 | -33.93397 | 151.17591 | 35 ft | 22 kts | 178° |
| 2026-04-26 07:18 | -33.93568 | 151.17601 | 32 ft | 27 kts | 168° |
| 2026-04-26 07:19 | -33.93748 | 151.17689 | 27 ft | 32 kts | 160° |
| 2026-04-26 07:19 | -33.93917 | 151.17781 | 27 ft | 4 kts | 162° |
| 2026-04-26 07:20 | -33.93939 | 151.17788 | 27 ft | 9 kts | 165° |
| 2026-04-26 07:20 | -33.94033 | 151.17814 | 28 ft | 19 kts | 168° |
| 2026-04-26 07:20 | -33.94200 | 151.17856 | 30 ft | 28 kts | 168° |
| 2026-04-26 07:20 | -33.94397 | 151.17908 | 30 ft | 21 kts | 171° |
| 2026-04-26 07:21 | -33.94537 | 151.17888 | 29 ft | 20 kts | 172° |
| 2026-04-26 07:21 | -33.94674 | 151.17922 | 28 ft | 22 kts | 167° |
| 2026-04-26 07:21 | -33.94840 | 151.17965 | 29 ft | 26 kts | 168° |
| 2026-04-26 07:21 | -33.95017 | 151.18011 | 30 ft | 25 kts | 167° |
| 2026-04-26 07:22 | -33.95167 | 151.18035 | 31 ft | 16 kts | 201° |
| 2026-04-26 07:22 | -33.95209 | 151.17942 | 29 ft | 10 kts | 258° |
| 2026-04-26 07:22 | -33.95216 | 151.17896 | 29 ft | 1 kts | 258° |
| 2026-04-26 07:22 | -33.95220 | 151.17877 | 29 ft | 5 kts | 258° |
| 2026-04-26 07:23 | -33.95233 | 151.17805 | 29 ft | 13 kts | 257° |
| 2026-04-26 07:23 | -33.95261 | 151.17655 | 30 ft | 23 kts | 248° |
| 2026-04-26 07:23 | -33.95405 | 151.17595 | 31 ft | 26 kts | 168° |
| 2026-04-26 07:23 | -33.95600 | 151.17646 | 28 ft | 31 kts | 168° |
| 2026-04-26 07:24 | -33.95821 | 151.17704 | 29 ft | 34 kts | 167° |
| 2026-04-26 07:24 | -33.96051 | 151.17763 | 30 ft | 34 kts | 168° |
| 2026-04-26 07:24 | -33.96288 | 151.17825 | 28 ft | 34 kts | 168° |
| 2026-04-26 07:24 | -33.96429 | 151.17889 | 29 ft | 13 kts | 119° |
| 2026-04-26 07:25 | -33.96437 | 151.17921 | 29 ft | 0 kts | 95° |
| 2026-04-26 07:25 | -33.96437 | 151.17929 | 29 ft | 4 kts | 92° |
| 2026-04-26 07:25 | -33.96431 | 151.17999 | 29 ft | 11 kts | 81° |
| 2026-04-26 07:26 | -33.96406 | 151.18048 | 30 ft | 3 kts | 22° |
| 2026-04-26 07:26 | -33.96343 | 151.18043 | 29 ft | 20 kts | 350° |
| 2026-04-26 07:26 | -33.96020 | 151.17962 | 28 ft | 85 kts | 347° |
| 2026-04-26 07:26 | -33.95193 | 151.17744 | 31 ft | 157 kts | 348° |
| 2026-04-26 07:27 | -33.94124 | 151.17439 | 737 ft | 132 kts | 346° |
| 2026-04-26 07:27 | -33.93375 | 151.17219 | 1323 ft | 107 kts | 357° |
| 2026-04-26 07:27 | -33.92852 | 151.17255 | 26 ft | 0 kts | 121° |